createdAt,value
2023-01-30T00:01:56.093Z,6.63
2023-01-30T00:04:22.867Z,6.80
2023-01-30T00:06:51.831Z,7.17
2023-01-30T00:09:20.974Z,6.90
2023-01-30T00:11:47.598Z,7.13
2023-01-30T00:14:14.385Z,6.87
2023-01-30T00:16:43.570Z,6.67
2023-01-30T00:19:12.872Z,6.07
2023-01-30T00:21:39.520Z,6.87
2023-01-30T00:24:06.587Z,6.50
2023-01-30T00:26:33.264Z,7.07
2023-01-30T00:28:59.982Z,7.27
2023-01-30T00:31:28.905Z,6.67
2023-01-30T00:33:57.849Z,7.30
2023-01-30T00:36:26.679Z,6.67
2023-01-30T00:38:53.375Z,6.90
2023-01-30T00:41:20.245Z,6.43
2023-01-30T00:44:05.713Z,6.20
2023-01-30T00:46:52.738Z,6.77
2023-01-30T00:49:23.895Z,6.77
2023-01-30T00:51:51.715Z,6.67
2023-01-30T00:54:26.896Z,6.37
2023-01-30T00:56:53.522Z,6.87
2023-01-30T00:59:22.410Z,6.30
2023-01-30T01:01:51.675Z,6.73
2023-01-30T01:04:18.339Z,6.40
2023-01-30T01:06:47.472Z,6.10
2023-01-30T01:09:14.157Z,5.80
2023-01-30T01:11:43.532Z,6.37
2023-01-30T01:14:10.358Z,6.67
2023-01-30T01:16:40.044Z,6.80
2023-01-30T01:19:09.213Z,6.97
2023-01-30T01:21:38.088Z,7.30
2023-01-30T01:24:04.988Z,6.80
2023-01-30T01:26:34.208Z,6.57
2023-01-30T01:29:03.073Z,6.53
2023-01-30T01:31:29.885Z,6.83
2023-01-30T01:33:57.429Z,6.43
2023-01-30T01:36:51.602Z,6.13
2023-01-30T01:39:12.962Z,7.03
2023-01-30T01:41:39.612Z,7.90
2023-01-30T01:44:10.095Z,7.13
2023-01-30T01:46:56.763Z,6.90
2023-01-30T01:49:30.849Z,7.33
2023-01-30T01:52:03.983Z,6.53
2023-01-30T01:54:39.163Z,6.57
2023-01-30T01:57:14.129Z,6.80
2023-01-30T01:59:57.338Z,6.17
2023-01-30T02:02:24.165Z,6.50
2023-01-30T02:05:04.474Z,5.90
2023-01-30T02:07:40.072Z,7.03
2023-01-30T02:10:11.139Z,6.87
2023-01-30T02:12:39.306Z,6.70
2023-01-30T02:15:06.740Z,6.33
2023-01-30T02:17:33.462Z,6.63
2023-01-30T02:20:20.746Z,6.33
2023-01-30T02:23:17.488Z,7.03
2023-01-30T02:26:08.808Z,7.25
2023-01-30T02:28:47.007Z,6.50
2023-01-30T02:31:49.963Z,6.93
2023-01-30T02:34:35.248Z,6.47
2023-01-30T02:37:18.016Z,6.63
2023-01-30T02:40:13.880Z,7.80
2023-01-30T02:43:06.652Z,7.27
2023-01-30T02:46:10.580Z,6.67
2023-01-30T02:48:49.611Z,6.37
2023-01-30T02:51:21.150Z,7.00
2023-01-30T02:53:53.689Z,7.10
2023-01-30T02:56:22.813Z,6.40
2023-01-30T02:58:55.253Z,6.23
2023-01-30T03:02:08.569Z,7.10
2023-01-30T03:04:42.831Z,6.77
2023-01-30T03:07:37.014Z,6.67
2023-01-30T03:10:14.619Z,6.43
2023-01-30T03:12:59.106Z,8.03
2023-01-30T03:15:30.321Z,6.53
2023-01-30T03:17:58.041Z,7.03
2023-01-30T03:20:24.712Z,6.40
2023-01-30T03:22:53.101Z,7.13
2023-01-30T03:25:23.321Z,7.57
2023-01-30T03:27:54.558Z,7.10
2023-01-30T03:30:24.720Z,6.93
2023-01-30T03:32:51.533Z,6.63
2023-01-30T03:35:18.715Z,7.10
2023-01-30T03:37:48.600Z,6.80
2023-01-30T03:40:16.462Z,6.90
2023-01-30T03:42:43.526Z,6.97
2023-01-30T03:45:11.505Z,7.83
2023-01-30T03:47:40.351Z,7.30
2023-01-30T03:50:07.437Z,7.57
2023-01-30T03:52:37.610Z,6.97
2023-01-30T03:55:04.899Z,7.17
2023-01-30T03:57:31.593Z,7.95
2023-01-30T03:59:58.295Z,7.00
2023-01-30T04:02:27.665Z,7.40
2023-01-30T04:04:54.400Z,6.53
2023-01-30T04:07:23.763Z,6.70
2023-01-30T04:09:52.723Z,6.70
2023-01-30T04:12:19.374Z,8.25
2023-01-30T04:14:46.032Z,7.20
2023-01-30T04:17:12.728Z,6.17
2023-01-30T04:19:42.271Z,7.03
2023-01-30T04:22:11.147Z,6.80
2023-01-30T04:24:37.826Z,6.27
2023-01-30T04:27:09.380Z,6.47
2023-01-30T04:29:36.149Z,6.80
2023-01-30T04:32:02.896Z,6.83
2023-01-30T04:34:29.581Z,7.17
2023-01-30T04:36:58.652Z,6.80
2023-01-30T04:39:27.482Z,6.57
2023-01-30T04:41:54.198Z,6.73
2023-01-30T04:44:20.903Z,6.80
2023-01-30T04:46:49.829Z,6.93
2023-01-30T04:49:16.647Z,6.43
2023-01-30T04:51:45.607Z,7.33
2023-01-30T04:54:12.395Z,6.73
2023-01-30T04:56:39.451Z,7.97
2023-01-30T04:59:08.253Z,7.40
2023-01-30T05:01:39.808Z,7.00
2023-01-30T05:04:09.291Z,6.67
2023-01-30T05:06:36.916Z,6.37
2023-01-30T05:09:04.762Z,6.50
2023-01-30T05:11:32.357Z,6.70
2023-01-30T05:13:59.432Z,6.80
2023-01-30T05:16:26.410Z,7.17
2023-01-30T05:18:55.406Z,6.63
2023-01-30T05:21:28.671Z,6.57
2023-01-30T05:23:56.819Z,7.50
2023-01-30T05:26:24.412Z,7.22
2023-01-30T05:28:55.815Z,6.33
2023-01-30T05:31:23.079Z,6.73
2023-01-30T05:33:52.266Z,7.10
2023-01-30T05:36:21.440Z,6.80
2023-01-30T05:38:48.167Z,6.70
2023-01-30T05:41:18.274Z,8.10
2023-01-30T05:43:48.809Z,7.10
2023-01-30T05:46:15.479Z,7.13
2023-01-30T05:48:44.395Z,6.17
2023-01-30T05:51:19.624Z,6.23
2023-01-30T05:53:46.971Z,7.17
2023-01-30T05:56:13.694Z,5.87
2023-01-30T05:58:40.491Z,6.67
2023-01-30T06:01:10.853Z,6.37
2023-01-30T06:03:40.362Z,5.83
2023-01-30T06:06:07.804Z,6.57
2023-01-30T06:08:34.609Z,6.90
2023-01-30T06:11:10.393Z,6.73
2023-01-30T06:13:38.422Z,6.43
2023-01-30T06:16:06.817Z,6.50
2023-01-30T06:18:35.905Z,7.07
2023-01-30T06:21:04.831Z,6.50
2023-01-30T06:23:34.659Z,7.75
2023-01-30T06:26:07.319Z,6.30
2023-01-30T06:28:35.133Z,5.90
2023-01-30T06:31:02.056Z,6.13
2023-01-30T06:33:28.891Z,6.17
2023-01-30T06:35:55.595Z,6.57
2023-01-30T06:38:22.347Z,6.23
2023-01-30T06:40:52.493Z,5.53
2023-01-30T06:43:19.228Z,6.17
2023-01-30T06:45:48.207Z,5.77
2023-01-30T06:48:17.480Z,6.53
2023-01-30T06:50:48.099Z,5.33
2023-01-30T06:53:14.917Z,7.13
2023-01-30T06:55:41.618Z,5.73
2023-01-30T06:58:11.282Z,6.07
2023-01-30T07:00:39.619Z,5.00
2023-01-30T07:03:14.514Z,5.80
2023-01-30T07:05:45.231Z,6.63
2023-01-30T07:08:18.150Z,6.37
2023-01-30T07:10:45.408Z,5.60
2023-01-30T07:13:15.565Z,5.30
2023-01-30T07:15:42.418Z,5.43
2023-01-30T07:18:11.590Z,5.60
2023-01-30T07:20:38.730Z,5.33
2023-01-30T07:23:05.417Z,6.17
2023-01-30T07:25:32.133Z,5.33
2023-01-30T07:28:02.899Z,5.20
2023-01-30T07:30:33.477Z,5.77
2023-01-30T07:33:00.688Z,5.30
2023-01-30T07:35:29.583Z,6.50
2023-01-30T07:37:56.558Z,5.83
2023-01-30T07:40:23.875Z,5.63
2023-01-30T07:43:03.717Z,6.00
2023-01-30T07:45:36.667Z,5.23
2023-01-30T07:48:06.166Z,6.22
2023-01-30T07:50:33.309Z,5.50
2023-01-30T07:53:06.002Z,5.50
2023-01-30T07:55:33.449Z,5.23
2023-01-30T07:58:02.285Z,5.37
2023-01-30T08:00:29.493Z,5.63
2023-01-30T08:02:56.296Z,6.00
2023-01-30T08:05:22.988Z,5.43
2023-01-30T08:07:49.735Z,5.70
2023-01-30T08:10:17.130Z,5.70
2023-01-30T08:12:46.659Z,5.53
2023-01-30T08:15:15.838Z,5.50
2023-01-30T08:17:44.772Z,6.50
2023-01-30T08:20:11.857Z,5.23
2023-01-30T08:22:43.567Z,5.80
2023-01-30T08:25:14.991Z,6.50
2023-01-30T08:27:43.959Z,5.70
2023-01-30T08:30:11.945Z,6.70
2023-01-30T08:32:38.663Z,5.93
2023-01-30T08:35:08.540Z,5.67
2023-01-30T08:37:35.315Z,5.67
2023-01-30T08:40:02.223Z,5.30
2023-01-30T08:42:28.996Z,6.40
2023-01-30T08:44:55.845Z,5.97
2023-01-30T08:47:25.013Z,6.00
2023-01-30T08:49:58.805Z,5.83
2023-01-30T08:52:25.507Z,6.00
2023-01-30T08:54:54.434Z,6.23
2023-01-30T08:57:21.179Z,6.32
2023-01-30T08:59:51.359Z,6.20
2023-01-30T09:02:18.643Z,6.00
2023-01-30T09:04:50.044Z,4.90
2023-01-30T09:07:16.764Z,5.00
2023-01-30T09:09:43.460Z,5.05
2023-01-30T09:12:12.456Z,4.50
2023-01-30T09:14:39.127Z,4.83
2023-01-30T09:17:05.921Z,4.57
2023-01-30T09:19:37.238Z,4.20
2023-01-30T09:22:07.592Z,4.03
2023-01-30T09:24:34.358Z,4.20
2023-01-30T09:27:01.092Z,3.80
2023-01-30T09:29:30.319Z,3.97
2023-01-30T09:31:57.295Z,3.90
2023-01-30T09:34:30.242Z,3.70
2023-01-30T09:36:59.463Z,3.37
2023-01-30T09:39:27.434Z,3.60
2023-01-30T09:42:05.736Z,3.07
2023-01-30T09:45:02.863Z,3.30
2023-01-30T09:47:55.274Z,3.27
2023-01-30T09:50:43.152Z,3.47
2023-01-30T09:53:21.839Z,2.80
2023-01-30T09:55:48.877Z,3.47
2023-01-30T09:58:24.756Z,3.13
2023-01-30T10:01:01.024Z,3.33
2023-01-30T10:03:34.841Z,3.27
2023-01-30T10:06:07.118Z,3.17
2023-01-30T10:08:50.297Z,3.77
2023-01-30T10:11:29.981Z,3.63
2023-01-30T10:14:17.568Z,3.40
2023-01-30T10:17:01.246Z,3.20
2023-01-30T10:19:56.124Z,2.70
2023-01-30T10:22:28.946Z,3.30
2023-01-30T10:25:14.369Z,3.20
2023-01-30T10:27:53.594Z,3.00
2023-01-30T10:30:23.191Z,2.80
2023-01-30T10:33:00.034Z,3.00
2023-01-30T10:35:35.756Z,2.93
2023-01-30T10:38:16.169Z,3.33
2023-01-30T10:40:44.439Z,2.87
2023-01-30T10:43:23.895Z,2.93
2023-01-30T10:45:56.366Z,2.85
2023-01-30T10:48:49.301Z,2.60
2023-01-30T10:51:24.348Z,2.73
2023-01-30T10:53:57.466Z,3.07
2023-01-30T10:56:48.479Z,2.60
2023-01-30T10:59:23.414Z,3.15
2023-01-30T11:02:06.904Z,3.00
2023-01-30T11:04:40.715Z,2.80
2023-01-30T11:07:08.261Z,2.87
2023-01-30T11:09:43.191Z,2.37
2023-01-30T11:12:12.604Z,2.80
2023-01-30T11:14:52.338Z,2.23
2023-01-30T11:17:28.769Z,2.50
2023-01-30T11:20:02.266Z,3.20
2023-01-30T11:22:31.904Z,2.80
2023-01-30T11:25:06.375Z,3.27
2023-01-30T11:27:34.878Z,3.00
2023-01-30T11:30:12.028Z,3.00
2023-01-30T11:32:43.075Z,3.42
2023-01-30T11:35:09.697Z,3.00
2023-01-30T11:37:38.861Z,3.20
2023-01-30T11:40:26.888Z,3.00
2023-01-30T11:43:11.569Z,3.00
2023-01-30T11:45:41.732Z,3.30
2023-01-30T11:48:33.432Z,2.90
2023-01-30T11:51:12.742Z,2.90
2023-01-30T11:53:59.185Z,3.42
2023-01-30T11:56:39.600Z,3.10
2023-01-30T11:59:36.833Z,3.17
2023-01-30T12:02:16.294Z,2.80
2023-01-30T12:04:47.678Z,3.30
2023-01-30T12:07:22.008Z,2.70
2023-01-30T12:09:52.935Z,3.00
2023-01-30T12:13:06.250Z,3.00
2023-01-30T12:15:35.245Z,2.40
2023-01-30T12:18:16.368Z,2.70
2023-01-30T12:20:48.907Z,2.60
2023-01-30T12:23:32.327Z,2.63
2023-01-30T12:26:12.927Z,3.03
2023-01-30T12:28:55.430Z,3.10
2023-01-30T12:31:29.409Z,3.40
2023-01-30T12:34:03.342Z,2.70
2023-01-30T12:36:45.758Z,2.87
2023-01-30T12:39:47.784Z,3.40
2023-01-30T12:42:50.635Z,3.13
2023-01-30T12:45:26.126Z,3.20
2023-01-30T12:48:23.118Z,3.27
2023-01-30T12:51:08.304Z,2.63
2023-01-30T12:54:07.099Z,3.30
2023-01-30T12:56:50.804Z,3.20
2023-01-30T12:59:38.413Z,3.50
2023-01-30T13:02:07.219Z,3.47
2023-01-30T13:04:56.835Z,3.20
2023-01-30T13:07:46.137Z,2.83
2023-01-30T13:10:39.705Z,3.00
2023-01-30T13:13:31.530Z,3.40
2023-01-30T13:16:13.147Z,2.97
2023-01-30T13:18:57.824Z,3.10
2023-01-30T13:21:40.671Z,2.80
2023-01-30T13:24:19.250Z,3.00
2023-01-30T13:26:46.825Z,3.20
2023-01-30T13:29:38.172Z,2.87
2023-01-30T13:32:30.175Z,3.13
2023-01-30T13:35:00.974Z,3.55
2023-01-30T13:37:29.074Z,3.07
2023-01-30T13:39:58.649Z,3.10
2023-01-30T13:42:25.396Z,3.20
2023-01-30T13:44:55.951Z,3.40
2023-01-30T13:47:45.703Z,3.83
2023-01-30T13:50:15.147Z,3.00
2023-01-30T13:53:00.101Z,3.37
2023-01-30T13:55:47.301Z,3.10
2023-01-30T13:58:25.071Z,3.10
2023-01-30T14:00:55.170Z,3.50
2023-01-30T14:03:28.935Z,3.57
2023-01-30T14:06:00.537Z,3.50
2023-01-30T14:08:28.536Z,3.10
2023-01-30T14:10:57.291Z,3.30
2023-01-30T14:13:26.342Z,3.57
2023-01-30T14:16:06.352Z,3.10
2023-01-30T14:18:35.922Z,3.25
2023-01-30T14:21:31.925Z,3.30
2023-01-30T14:24:04.568Z,3.30
2023-01-30T14:26:53.133Z,3.00
2023-01-30T14:29:40.944Z,3.40
2023-01-30T14:32:14.256Z,3.40
2023-01-30T14:34:46.020Z,3.80
2023-01-30T14:37:41.658Z,3.20
2023-01-30T14:40:23.667Z,3.37
2023-01-30T14:43:25.373Z,4.35
2023-01-30T14:45:56.435Z,4.37
2023-01-30T14:48:49.951Z,4.03
2023-01-30T14:51:24.681Z,3.80
2023-01-30T14:54:13.026Z,3.83
2023-01-30T14:57:03.292Z,4.13
2023-01-30T15:00:14.354Z,4.00
2023-01-30T15:02:47.031Z,4.00
2023-01-30T15:05:20.518Z,3.60
2023-01-30T15:07:54.060Z,3.90
2023-01-30T15:10:45.401Z,3.67
2023-01-30T15:13:40.815Z,3.57
2023-01-30T15:16:28.008Z,3.90
2023-01-30T15:19:03.605Z,3.50
2023-01-30T15:21:55.598Z,4.33
2023-01-30T15:24:34.803Z,3.70
2023-01-30T15:27:13.494Z,4.03
2023-01-30T15:29:58.812Z,3.70
2023-01-30T15:32:29.739Z,3.40
2023-01-30T15:35:02.429Z,3.20
2023-01-30T15:37:30.075Z,3.47
2023-01-30T15:40:19.589Z,3.10
2023-01-30T15:43:01.476Z,3.40
2023-01-30T15:45:43.337Z,3.30
2023-01-30T15:48:47.603Z,3.73
2023-01-30T15:51:16.822Z,3.55
2023-01-30T15:53:49.961Z,3.37
2023-01-30T15:56:25.207Z,3.10
2023-01-30T15:58:55.262Z,2.77
2023-01-30T16:01:24.063Z,2.83
2023-01-30T16:03:58.192Z,3.37
2023-01-30T16:06:30.835Z,3.07
2023-01-30T16:09:00.215Z,3.20
2023-01-30T16:11:56.273Z,3.43
2023-01-30T16:14:23.192Z,4.10
2023-01-30T16:16:52.860Z,3.50
2023-01-30T16:19:29.375Z,3.37
2023-01-30T16:22:02.002Z,3.57
2023-01-30T16:24:32.703Z,3.73
2023-01-30T16:27:08.325Z,3.60
2023-01-30T16:29:50.423Z,3.70
2023-01-30T16:32:19.560Z,3.70
2023-01-30T16:34:48.461Z,3.50
2023-01-30T16:37:27.037Z,4.37
2023-01-30T16:40:25.834Z,3.77
2023-01-30T16:42:57.154Z,4.07
2023-01-30T16:45:36.087Z,4.47
2023-01-30T16:48:30.628Z,4.10
2023-01-30T16:51:00.479Z,4.03
2023-01-30T16:53:29.578Z,4.20
2023-01-30T16:56:03.962Z,3.83
2023-01-30T16:58:33.764Z,5.28
2023-01-30T17:01:02.394Z,6.03
2023-01-30T17:03:33.564Z,5.73
2023-01-30T17:06:02.805Z,4.80
2023-01-30T17:08:54.493Z,5.10
2023-01-30T17:11:39.720Z,4.90
2023-01-30T17:14:22.750Z,5.37
2023-01-30T17:17:04.814Z,5.20
2023-01-30T17:19:31.541Z,5.30
2023-01-30T17:21:59.892Z,5.10
2023-01-30T17:24:26.989Z,5.20
2023-01-30T17:26:59.171Z,4.70
2023-01-30T17:29:42.802Z,4.93
2023-01-30T17:32:15.519Z,5.30
2023-01-30T17:34:42.472Z,5.43
2023-01-30T17:37:18.336Z,5.30
2023-01-30T17:39:45.158Z,5.30
2023-01-30T17:42:20.881Z,4.57
2023-01-30T17:44:47.683Z,4.50
2023-01-30T17:47:16.791Z,5.23
2023-01-30T17:49:43.454Z,4.67
2023-01-30T17:52:12.899Z,4.53
2023-01-30T17:54:44.613Z,5.00
2023-01-30T17:57:15.937Z,4.00
2023-01-30T17:59:42.726Z,4.50
2023-01-30T18:02:13.177Z,3.83
2023-01-30T18:04:42.206Z,4.33
2023-01-30T18:07:16.506Z,4.10
2023-01-30T18:09:45.730Z,4.35
2023-01-30T18:12:14.902Z,4.03
2023-01-30T18:14:43.688Z,4.00
2023-01-30T18:17:10.820Z,4.30
2023-01-30T18:19:37.516Z,3.60
2023-01-30T18:22:04.162Z,4.20
2023-01-30T18:24:30.871Z,4.57
2023-01-30T18:26:58.440Z,3.97
2023-01-30T18:29:29.444Z,4.17
2023-01-30T18:32:04.920Z,4.33
2023-01-30T18:34:32.515Z,4.27
2023-01-30T18:36:59.229Z,4.13
2023-01-30T18:39:28.401Z,4.40
2023-01-30T18:41:57.369Z,4.77
2023-01-30T18:44:25.117Z,4.60
2023-01-30T18:46:51.787Z,4.97
2023-01-30T18:49:20.682Z,4.90
2023-01-30T18:51:47.486Z,4.50
2023-01-30T18:54:14.334Z,4.67
2023-01-30T18:56:43.500Z,5.27
2023-01-30T18:59:10.312Z,4.50
2023-01-30T19:01:39.283Z,5.10
2023-01-30T19:04:10.770Z,4.70
2023-01-30T19:06:42.115Z,5.03
2023-01-30T19:09:12.905Z,5.43
2023-01-30T19:11:58.223Z,4.30
2023-01-30T19:14:27.126Z,4.83
2023-01-30T19:16:58.617Z,5.10
2023-01-30T19:19:28.214Z,5.03
2023-01-30T19:21:57.563Z,5.40
2023-01-30T19:24:26.865Z,5.03
2023-01-30T19:26:53.589Z,5.13
2023-01-30T19:29:20.367Z,4.83
2023-01-30T19:31:49.421Z,4.40
2023-01-30T19:34:16.212Z,5.10
2023-01-30T19:36:45.343Z,5.37
2023-01-30T19:39:12.105Z,4.43
2023-01-30T19:41:41.691Z,3.97
2023-01-30T19:44:11.106Z,4.70
2023-01-30T19:46:40.432Z,4.80
2023-01-30T19:49:09.461Z,4.37
2023-01-30T19:51:36.230Z,5.20
2023-01-30T19:54:06.109Z,4.70
2023-01-30T19:56:33.448Z,4.03
2023-01-30T19:59:01.177Z,4.07
2023-01-30T20:01:32.537Z,4.37
2023-01-30T20:04:00.700Z,4.77
2023-01-30T20:06:29.353Z,4.30
2023-01-30T20:09:01.678Z,5.27
2023-01-30T20:11:32.719Z,5.10
2023-01-30T20:14:02.026Z,5.50
2023-01-30T20:16:31.147Z,5.33
2023-01-30T20:19:14.900Z,5.20
2023-01-30T20:21:41.894Z,5.40
2023-01-30T20:24:11.594Z,5.60
2023-01-30T20:26:39.827Z,5.83
2023-01-30T20:29:08.665Z,5.60
2023-01-30T20:31:39.098Z,6.60
2023-01-30T20:34:07.778Z,6.80
2023-01-30T20:36:34.584Z,6.57
2023-01-30T20:39:06.450Z,6.67
2023-01-30T20:41:35.648Z,6.10
2023-01-30T20:44:02.640Z,6.63
2023-01-30T20:46:41.153Z,7.88
2023-01-30T20:49:15.869Z,7.23
2023-01-30T20:51:43.214Z,6.33
2023-01-30T20:54:12.033Z,6.77
2023-01-30T20:56:44.237Z,7.10
2023-01-30T20:59:15.376Z,7.30
2023-01-30T21:01:43.001Z,6.73
2023-01-30T21:04:14.834Z,7.20
2023-01-30T21:06:45.982Z,6.57
2023-01-30T21:09:19.377Z,7.85
2023-01-30T21:11:46.843Z,7.00
2023-01-30T21:14:13.651Z,6.73
2023-01-30T21:16:40.964Z,7.43
2023-01-30T21:19:17.376Z,6.77
2023-01-30T21:21:50.599Z,7.43
2023-01-30T21:24:19.920Z,6.87
2023-01-30T21:26:49.933Z,6.60
2023-01-30T21:29:21.593Z,6.40
2023-01-30T21:31:51.193Z,6.53
2023-01-30T21:34:18.106Z,6.40
2023-01-30T21:37:04.867Z,6.00
2023-01-30T21:39:50.385Z,6.03
2023-01-30T21:42:35.802Z,6.20
2023-01-30T21:45:02.676Z,6.97
2023-01-30T21:47:31.760Z,6.17
2023-01-30T21:50:00.893Z,6.10
2023-01-30T21:52:27.534Z,5.47
2023-01-30T21:54:57.105Z,5.47
2023-01-30T21:57:26.296Z,6.28
2023-01-30T21:59:55.608Z,5.93
2023-01-30T22:02:22.398Z,5.47
2023-01-30T22:04:49.287Z,5.63
2023-01-30T22:07:15.977Z,5.37
2023-01-30T22:09:45.226Z,5.57
2023-01-30T22:12:14.099Z,4.80
2023-01-30T22:14:40.764Z,5.00
2023-01-30T22:17:07.455Z,5.23
2023-01-30T22:19:35.554Z,5.50
2023-01-30T22:22:05.253Z,5.20
2023-01-30T22:24:31.961Z,4.73
2023-01-30T22:27:00.864Z,4.87
2023-01-30T22:29:29.051Z,4.77
2023-01-30T22:31:58.058Z,4.60
2023-01-30T22:34:29.908Z,4.97
2023-01-30T22:36:57.797Z,4.60
2023-01-30T22:39:26.761Z,5.03
2023-01-30T22:41:53.454Z,4.73
2023-01-30T22:44:20.184Z,4.77
2023-01-30T22:46:52.353Z,5.13
2023-01-30T22:49:19.072Z,5.30
2023-01-30T22:51:45.905Z,4.80
2023-01-30T22:54:17.429Z,4.93
2023-01-30T22:56:46.870Z,5.38
2023-01-30T22:59:14.320Z,4.57
2023-01-30T23:01:43.582Z,4.67
2023-01-30T23:04:21.893Z,4.83
2023-01-30T23:06:51.881Z,4.53
2023-01-30T23:09:24.468Z,4.77
2023-01-30T23:12:16.880Z,4.97
2023-01-30T23:14:46.286Z,4.13
2023-01-30T23:17:34.708Z,5.20
2023-01-30T23:20:03.944Z,4.80
2023-01-30T23:22:30.584Z,5.00
2023-01-30T23:24:57.328Z,5.13
2023-01-30T23:27:26.941Z,4.30
2023-01-30T23:29:53.600Z,4.90
2023-01-30T23:32:23.758Z,4.53
2023-01-30T23:34:50.509Z,4.50
2023-01-30T23:37:17.537Z,4.17
2023-01-30T23:39:45.369Z,4.47
2023-01-30T23:42:14.313Z,4.30
2023-01-30T23:44:40.971Z,4.47
2023-01-30T23:47:10.195Z,4.50
2023-01-30T23:49:37.263Z,4.57
2023-01-30T23:52:04.395Z,4.27
2023-01-30T23:54:31.051Z,4.40
2023-01-30T23:56:57.739Z,4.73
2023-01-30T23:59:24.479Z,4.20
